Time;durP1;ratioP1;P1;durP2;ratioP2;P2;SDS_P1;SDS_P2;PMS_P1;PMS_P2;Temp;Humidity;BMP_temperature;BMP_pressure;BME280_temperature;BME280_humidity;BME280_pressure;Samples;Min_cycle;Max_cycle;Signal;HPM_P1;HPM_P2
2021/10/23 00:01:07;;;;;;;6.85;2.10;;;;;;;10.97;73.36;100332.16;5055854;28;20033;-73
2021/10/23 00:03:33;;;;;;;7.68;2.97;;;;;;;10.78;74.01;100334.13;5049608;28;20438;-73
2021/10/23 00:05:58;;;;;;;8.88;4.43;;;;;;;10.76;74.46;100331.63;5065703;28;20127;-72
2021/10/23 00:08:24;;;;;;;8.48;4.70;;;;;;;10.82;74.24;100324.53;5056813;28;20457;-72
2021/10/23 00:10:49;;;;;;;12.25;6.88;;;;;;;10.72;74.28;100321.56;5062222;28;20111;-73
2021/10/23 00:13:15;;;;;;;14.95;8.32;;;;;;;10.48;75.25;100316.06;5061913;28;20597;-72
2021/10/23 00:15:41;;;;;;;19.13;8.68;;;;;;;10.62;75.45;100319.41;5060606;28;20025;-72
2021/10/23 00:18:07;;;;;;;16.73;9.25;;;;;;;10.63;75.02;100321.88;5051751;28;20086;-73
2021/10/23 00:20:32;;;;;;;16.83;10.15;;;;;;;10.64;74.80;100322.69;5053104;28;20035;-72
2021/10/23 00:22:58;;;;;;;15.27;9.85;;;;;;;10.61;74.58;100326.69;5068327;28;20120;-72
2021/10/23 00:25:23;;;;;;;20.75;10.65;;;;;;;10.67;74.65;100317.69;5072549;28;20074;-72
2021/10/23 00:27:49;;;;;;;17.42;10.02;;;;;;;10.64;75.12;100317.31;5053748;28;20106;-72
2021/10/23 00:30:16;;;;;;;17.88;10.75;;;;;;;10.60;75.04;100319.66;5056299;28;21228;-73
2021/10/23 00:32:42;;;;;;;24.02;12.38;;;;;;;10.57;75.08;100327.34;5062139;28;20097;-72
2021/10/23 00:35:09;;;;;;;25.33;13.00;;;;;;;10.58;74.82;100315.53;5055352;28;20482;-72
2021/10/23 00:37:34;;;;;;;19.73;13.25;;;;;;;10.60;74.96;100316.13;5059430;28;20024;-73
2021/10/23 00:40:01;;;;;;;23.23;14.27;;;;;;;10.63;74.95;100316.50;5063105;28;20067;-72
2021/10/23 00:42:26;;;;;;;24.48;13.30;;;;;;;10.65;74.84;100308.19;5032727;28;20414;-72
2021/10/23 00:44:52;;;;;;;20.63;13.82;;;;;;;10.64;74.72;100304.69;5055687;28;20588;-72
2021/10/23 00:47:20;;;;;;;20.48;13.05;;;;;;;10.49;74.85;100299.69;5051757;28;20033;-72
2021/10/23 00:49:51;;;;;;;20.98;12.52;;;;;;;10.48;75.02;100303.44;5061916;28;20481;-72
2021/10/23 00:52:19;;;;;;;25.98;11.93;;;;;;;10.53;74.11;100297.34;5063050;28;20040;-72
2021/10/23 00:54:45;;;;;;;17.92;11.25;;;;;;;10.47;73.90;100299.09;5061614;28;20477;-73
2021/10/23 00:57:10;;;;;;;21.42;11.90;;;;;;;10.36;74.63;100297.94;5054454;28;20036;-72
2021/10/23 00:59:36;;;;;;;21.98;11.38;;;;;;;10.23;75.21;100298.97;5061173;28;20036;-73
2021/10/23 01:02:03;;;;;;;17.27;9.63;;;;;;;10.18;74.58;100298.81;5053395;28;20036;-73
2021/10/23 01:04:28;;;;;;;16.33;8.70;;;;;;;10.14;75.04;100305.69;5055844;28;20506;-72
2021/10/23 01:06:54;;;;;;;14.73;8.77;;;;;;;10.11;74.69;100295.38;5046830;28;20044;-73
2021/10/23 01:09:21;;;;;;;16.08;8.85;;;;;;;10.23;74.08;100295.44;5059647;28;20029;-72
2021/10/23 01:11:48;;;;;;;14.98;8.88;;;;;;;10.14;73.88;100288.72;5049815;28;20028;-72
2021/10/23 01:14:16;;;;;;;15.02;7.47;;;;;;;10.14;74.16;100286.84;5058027;28;20039;-73
2021/10/23 01:16:42;;;;;;;27.27;7.88;;;;;;;10.18;73.97;100282.66;5046470;28;20125;-73
2021/10/23 01:19:09;;;;;;;15.40;7.35;;;;;;;10.17;73.58;100289.09;5058924;28;20043;-73
2021/10/23 01:21:36;;;;;;;18.30;7.43;;;;;;;10.09;73.80;100286.72;5045932;28;20085;-73
2021/10/23 01:24:04;;;;;;;15.55;7.15;;;;;;;10.03;74.40;100285.72;5081706;28;20540;-72
2021/10/23 01:26:30;;;;;;;14.93;7.45;;;;;;;9.94;74.45;100279.00;5050924;28;20032;-73
2021/10/23 01:28:56;;;;;;;19.60;8.27;;;;;;;9.92;74.63;100278.41;5070100;28;20481;-73
2021/10/23 01:31:21;;;;;;;16.77;8.00;;;;;;;9.98;74.16;100282.91;5052271;28;20147;-73
2021/10/23 01:33:47;;;;;;;15.10;8.45;;;;;;;9.91;74.64;100279.47;5057574;28;20025;-72
2021/10/23 01:36:16;;;;;;;18.52;10.00;;;;;;;9.94;75.46;100276.31;5054796;28;20032;-72
2021/10/23 01:38:44;;;;;;;21.05;10.98;;;;;;;9.79;75.03;100282.09;5063701;28;20029;-72
2021/10/23 01:41:10;;;;;;;19.98;10.50;;;;;;;9.75;76.29;100281.72;5052357;28;20071;-72
2021/10/23 01:43:36;;;;;;;23.02;11.00;;;;;;;9.81;76.23;100271.94;5060704;28;20107;-73
2021/10/23 01:46:03;;;;;;;17.80;10.02;;;;;;;9.99;75.39;100276.47;5050471;28;20545;-72
2021/10/23 01:48:33;;;;;;;17.77;9.98;;;;;;;9.87;76.12;100278.28;5052177;28;20056;-72
2021/10/23 01:50:59;;;;;;;18.17;9.70;;;;;;;10.05;75.50;100280.94;5060769;28;20039;-72
2021/10/23 01:53:24;;;;;;;14.65;8.93;;;;;;;10.08;75.01;100283.19;5057028;28;20393;-72
2021/10/23 01:55:52;;;;;;;16.05;8.55;;;;;;;10.12;74.76;100280.88;5053951;28;20523;-73
2021/10/23 01:58:18;;;;;;;16.52;8.23;;;;;;;10.15;74.56;100280.44;5061446;28;20039;-72
2021/10/23 02:00:44;;;;;;;13.02;8.10;;;;;;;10.12;74.43;100275.50;5052999;28;20055;-72
2021/10/23 02:03:09;;;;;;;12.57;8.02;;;;;;;10.16;74.52;100281.22;5044210;28;20489;-72
2021/10/23 02:05:36;;;;;;;19.08;8.25;;;;;;;10.08;74.17;100274.31;5063321;28;20044;-72
2021/10/23 02:08:02;;;;;;;14.32;8.95;;;;;;;10.09;74.98;100273.25;5056687;28;20040;-72
2021/10/23 02:10:28;;;;;;;15.25;7.35;;;;;;;9.93;75.86;100267.44;5048928;28;20090;-72
2021/10/23 02:12:54;;;;;;;14.65;7.80;;;;;;;10.03;75.29;100274.97;5058772;28;20029;-72
2021/10/23 02:15:19;;;;;;;11.20;7.40;;;;;;;10.06;75.04;100279.91;5063967;28;20522;-73
2021/10/23 02:17:45;;;;;;;16.83;8.00;;;;;;;10.07;75.63;100275.34;5061348;28;20036;-72
2021/10/23 02:20:11;;;;;;;13.15;6.93;;;;;;;10.21;75.28;100276.00;5073284;28;20111;-73
2021/10/23 02:22:39;;;;;;;12.23;6.05;;;;;;;10.11;74.91;100279.25;5058995;28;20075;-72
2021/10/23 02:25:08;;;;;;;13.90;5.53;;;;;;;10.32;74.62;100279.81;5046832;28;20504;-72
2021/10/23 02:27:33;;;;;;;11.77;5.00;;;;;;;10.48;74.31;100283.75;5050474;28;20034;-72
2021/10/23 02:29:59;;;;;;;9.27;4.85;;;;;;;10.45;74.49;100292.28;5054004;28;20024;-72
2021/10/23 02:32:25;;;;;;;8.43;4.78;;;;;;;10.43;74.03;100289.81;5053750;28;20040;-72
2021/10/23 02:34:50;;;;;;;10.50;4.57;;;;;;;10.67;73.29;100290.75;5051559;28;20116;-72
2021/10/23 02:37:17;;;;;;;14.43;4.90;;;;;;;10.77;72.67;100287.47;5044089;28;20436;-72
2021/10/23 02:39:43;;;;;;;12.02;4.43;;;;;;;10.81;72.98;100277.88;5055824;28;20060;-72
2021/10/23 02:42:09;;;;;;;8.57;4.40;;;;;;;10.72;73.36;100273.06;5048931;28;20138;-72
2021/10/23 02:44:34;;;;;;;13.48;4.93;;;;;;;10.89;72.50;100276.75;5054289;28;20604;-72
2021/10/23 02:47:00;;;;;;;13.32;4.65;;;;;;;10.79;72.70;100274.59;5046865;28;20037;-72
2021/10/23 02:49:26;;;;;;;14.63;6.05;;;;;;;10.85;72.29;100278.25;5061537;28;20117;-72
2021/10/23 02:51:52;;;;;;;10.65;4.47;;;;;;;10.83;73.00;100277.66;5062095;28;20033;-72
2021/10/23 02:54:18;;;;;;;11.93;4.55;;;;;;;10.95;72.74;100269.59;5050624;28;20025;-72
2021/10/23 02:56:43;;;;;;;7.95;4.50;;;;;;;10.79;73.05;100271.91;5048236;28;20500;-72
2021/10/23 02:59:09;;;;;;;10.70;4.90;;;;;;;10.89;72.76;100273.22;5058952;28;20074;-71
2021/10/23 03:01:34;;;;;;;12.10;4.63;;;;;;;10.79;72.83;100274.59;5058891;28;20029;-71
2021/10/23 03:04:00;;;;;;;8.63;4.55;;;;;;;10.78;73.43;100272.94;5050314;28;20040;-72
2021/10/23 03:06:26;;;;;;;15.05;4.57;;;;;;;10.76;73.44;100279.63;5061151;28;20071;-72
2021/10/23 03:08:51;;;;;;;8.95;4.78;;;;;;;10.77;73.43;100274.00;5055662;28;20063;-72
2021/10/23 03:11:17;;;;;;;11.90;4.85;;;;;;;10.79;73.05;100273.78;5047078;28;20105;-72
2021/10/23 03:13:43;;;;;;;15.30;4.72;;;;;;;10.65;74.27;100274.00;5054627;28;20045;-72
2021/10/23 03:16:10;;;;;;;7.88;4.38;;;;;;;10.64;74.27;100274.22;5041446;28;20108;-72
2021/10/23 03:18:36;;;;;;;7.30;4.25;;;;;;;10.73;73.96;100278.22;5063365;28;20174;-72
2021/10/23 03:21:02;;;;;;;10.38;3.88;;;;;;;10.75;73.86;100276.09;5056122;28;20513;-72
2021/10/23 03:23:28;;;;;;;8.45;4.05;;;;;;;10.74;73.80;100281.75;5048470;28;20036;-72
2021/10/23 03:25:54;;;;;;;10.27;4.25;;;;;;;10.79;74.06;100277.28;5063669;28;20048;-72
2021/10/23 03:28:19;;;;;;;11.40;4.55;;;;;;;10.93;73.75;100283.31;5048036;28;20032;-72
2021/10/23 03:30:45;;;;;;;9.70;3.95;;;;;;;10.96;73.43;100284.69;5068416;28;20040;-73
2021/10/23 03:33:11;;;;;;;10.20;3.90;;;;;;;10.93;73.00;100287.84;5041992;28;20475;-72
2021/10/23 03:35:37;;;;;;;6.30;4.15;;;;;;;10.98;73.17;100286.13;5043297;28;20045;-72
2021/10/23 03:38:02;;;;;;;7.93;4.40;;;;;;;10.98;73.28;100283.44;5060345;28;20037;-72
2021/10/23 03:40:29;;;;;;;13.77;4.38;;;;;;;10.94;73.92;100282.25;5049760;28;20453;-72
2021/10/23 03:42:55;;;;;;;8.48;4.80;;;;;;;10.95;73.55;100285.75;5067604;28;20024;-72
2021/10/23 03:45:20;;;;;;;6.30;4.28;;;;;;;10.92;73.38;100283.53;5051829;28;20473;-72
2021/10/23 03:47:46;;;;;;;10.23;4.60;;;;;;;11.05;73.44;100291.41;5052807;28;20127;-72
2021/10/23 03:50:12;;;;;;;12.85;5.03;;;;;;;10.97;73.43;100283.66;5058984;28;20041;-72
2021/10/23 03:52:38;;;;;;;9.35;4.63;;;;;;;10.83;73.60;100283.06;5051616;28;20447;-72
2021/10/23 03:55:04;;;;;;;10.52;4.97;;;;;;;11.03;73.56;100290.00;5062345;28;20481;-73
2021/10/23 03:57:30;;;;;;;9.70;4.47;;;;;;;10.80;74.28;100280.81;5061052;28;20052;-72
2021/10/23 03:59:57;;;;;;;11.55;5.28;;;;;;;10.98;73.76;100285.28;5057963;28;20024;-72
2021/10/23 04:02:23;;;;;;;15.25;5.03;;;;;;;11.03;73.56;100282.72;5049366;28;20355;-72
2021/10/23 04:04:48;;;;;;;9.00;5.28;;;;;;;11.03;73.48;100290.81;5065553;28;20037;-72
2021/10/23 04:07:14;;;;;;;10.90;4.97;;;;;;;11.11;72.52;100279.69;5069353;28;20476;-72
2021/10/23 04:09:40;;;;;;;9.10;5.07;;;;;;;11.17;72.61;100287.88;5057675;28;20035;-72
2021/10/23 04:12:06;;;;;;;12.35;4.40;;;;;;;11.18;72.47;100282.28;5051708;28;20030;-72
2021/10/23 04:14:31;;;;;;;8.60;4.75;;;;;;;11.21;72.77;100283.69;5061334;28;20029;-73
2021/10/23 04:16:57;;;;;;;9.77;4.32;;;;;;;11.31;72.48;100283.91;5060757;28;20359;-72
2021/10/23 04:19:22;;;;;;;13.35;4.18;;;;;;;11.25;72.68;100276.75;5061035;28;20438;-72
2021/10/23 04:21:48;;;;;;;6.18;4.07;;;;;;;11.26;72.58;100275.72;5047894;28;20460;-73
2021/10/23 04:24:14;;;;;;;6.47;4.38;;;;;;;11.30;72.05;100284.97;5071247;28;20060;-73
2021/10/23 04:26:41;;;;;;;6.72;4.22;;;;;;;11.09;73.15;100283.69;5054899;28;20119;-72
2021/10/23 04:29:07;;;;;;;5.82;4.13;;;;;;;11.19;72.54;100281.22;5060150;28;20178;-72
2021/10/23 04:31:33;;;;;;;7.85;3.63;;;;;;;11.23;72.08;100281.56;5055094;28;20040;-72
2021/10/23 04:34:00;;;;;;;17.13;3.67;;;;;;;11.26;72.22;100278.41;5063473;28;20025;-72
2021/10/23 04:36:26;;;;;;;15.00;4.32;;;;;;;11.17;72.89;100282.50;5046586;28;20402;-72
2021/10/23 04:38:52;;;;;;;8.77;3.70;;;;;;;11.13;72.55;100272.19;5052945;28;20469;-72
2021/10/23 04:41:18;;;;;;;4.97;3.17;;;;;;;11.19;72.63;100281.22;5043743;28;20108;-73
2021/10/23 04:43:43;;;;;;;8.73;3.33;;;;;;;11.17;72.73;100275.25;5057417;28;20105;-72
2021/10/23 04:46:09;;;;;;;11.30;3.63;;;;;;;11.19;72.28;100278.53;5054455;28;20028;-72
2021/10/23 04:48:35;;;;;;;7.25;2.80;;;;;;;11.28;72.29;100281.69;5071568;28;20024;-72
2021/10/23 04:51:01;;;;;;;9.45;3.10;;;;;;;11.25;72.07;100274.91;5063383;28;20112;-72
2021/10/23 04:53:27;;;;;;;6.75;3.22;;;;;;;11.28;71.88;100277.13;5052294;28;20052;-72
2021/10/23 04:55:53;;;;;;;8.30;3.17;;;;;;;11.15;72.44;100269.28;5078027;28;20028;-72
2021/10/23 04:58:19;;;;;;;6.25;3.15;;;;;;;11.20;71.72;100265.84;5048907;28;20033;-72
2021/10/23 05:00:45;;;;;;;5.32;3.45;;;;;;;11.13;72.12;100269.50;5043893;28;20191;-72
2021/10/23 05:03:11;;;;;;;5.43;2.70;;;;;;;11.25;71.60;100272.22;5057054;28;20514;-72
2021/10/23 05:05:36;;;;;;;6.30;2.50;;;;;;;11.20;71.73;100273.94;5059176;28;20077;-72
2021/10/23 05:08:02;;;;;;;4.43;2.55;;;;;;;11.08;71.45;100272.06;5058943;28;20029;-72
2021/10/23 05:10:29;;;;;;;6.15;2.30;;;;;;;11.09;71.77;100268.31;5058397;28;20478;-72
2021/10/23 05:12:55;;;;;;;6.05;2.35;;;;;;;11.25;71.33;100261.41;5050563;28;20670;-72
2021/10/23 05:15:20;;;;;;;4.35;2.50;;;;;;;11.29;71.14;100269.84;5043261;28;20350;-72
2021/10/23 05:17:46;;;;;;;6.43;2.67;;;;;;;11.02;71.33;100272.19;5061327;28;20090;-73
2021/10/23 05:20:12;;;;;;;4.80;1.90;;;;;;;11.06;71.15;100274.16;5057539;28;20040;-73
2021/10/23 05:22:38;;;;;;;8.20;2.13;;;;;;;11.11;71.22;100276.19;5068730;28;20082;-72
2021/10/23 05:25:05;;;;;;;3.83;2.00;;;;;;;10.98;71.15;100271.81;5053489;28;20043;-72
2021/10/23 05:27:31;;;;;;;6.78;2.20;;;;;;;10.94;71.52;100270.63;5057892;28;21101;-72
2021/10/23 05:29:58;;;;;;;5.35;1.80;;;;;;;11.13;71.05;100272.19;5061583;28;20028;-72
2021/10/23 05:32:24;;;;;;;5.93;2.13;;;;;;;11.12;70.95;100270.53;5046925;28;20040;-72
2021/10/23 05:34:49;;;;;;;6.65;1.92;;;;;;;10.99;70.99;100268.06;5056304;28;20036;-72
2021/10/23 05:37:15;;;;;;;6.30;1.77;;;;;;;10.96;71.52;100269.38;5064566;28;20444;-73
2021/10/23 05:39:41;;;;;;;5.60;1.70;;;;;;;10.83;71.63;100264.19;5049314;28;20493;-73
2021/10/23 05:42:07;;;;;;;5.53;1.48;;;;;;;11.02;70.97;100262.22;5047764;28;20115;-72
2021/10/23 05:44:33;;;;;;;4.15;1.50;;;;;;;11.12;70.82;100258.94;5063768;28;20085;-72
2021/10/23 05:46:58;;;;;;;4.13;1.42;;;;;;;11.06;70.81;100260.69;5049328;28;20148;-72
2021/10/23 05:49:24;;;;;;;4.03;1.45;;;;;;;11.08;70.40;100249.69;5064151;28;20036;-72
2021/10/23 05:51:51;;;;;;;2.85;1.27;;;;;;;11.10;70.68;100259.16;5048657;28;20093;-72
2021/10/23 05:54:17;;;;;;;7.93;1.60;;;;;;;11.08;70.27;100260.47;5080303;28;20056;-72
2021/10/23 05:56:42;;;;;;;5.82;1.73;;;;;;;11.05;70.69;100260.94;5043758;28;20079;-72
2021/10/23 05:59:11;;;;;;;12.30;1.90;;;;;;;11.00;70.39;100266.22;5071463;28;20036;-73
2021/10/23 06:01:38;;;;;;;6.07;1.33;;;;;;;10.93;70.71;100260.91;5056765;28;20041;-73
2021/10/23 06:04:04;;;;;;;6.20;1.40;;;;;;;10.86;70.85;100252.94;5064341;28;20504;-73
2021/10/23 06:06:30;;;;;;;3.42;1.30;;;;;;;10.94;70.18;100259.84;5049678;28;20156;-72
2021/10/23 06:08:56;;;;;;;5.20;1.23;;;;;;;10.91;71.14;100257.63;5062755;28;20039;-72
2021/10/23 06:11:22;;;;;;;8.05;1.15;;;;;;;10.85;70.84;100251.31;5048679;28;20033;-72
2021/10/23 06:13:50;;;;;;;3.65;1.00;;;;;;;10.81;70.68;100248.25;5061066;28;20041;-72
2021/10/23 06:16:16;;;;;;;5.63;1.45;;;;;;;10.82;70.74;100255.28;5056213;28;20037;-71
2021/10/23 06:18:41;;;;;;;4.40;1.20;;;;;;;10.84;70.66;100257.75;5067685;28;20024;-71
2021/10/23 06:21:07;;;;;;;8.50;1.42;;;;;;;10.82;70.43;100259.84;5061873;28;20028;-71
2021/10/23 06:23:34;;;;;;;7.43;1.55;;;;;;;10.87;70.36;100269.91;5063940;28;20413;-71
2021/10/23 06:26:00;;;;;;;8.60;1.13;;;;;;;10.86;70.38;100266.44;5054167;28;20465;-69
2021/10/23 06:28:25;;;;;;;3.45;1.00;;;;;;;10.89;70.22;100265.13;5036736;28;20042;-70
2021/10/23 06:30:51;;;;;;;5.95;1.08;;;;;;;10.86;70.25;100266.44;5056217;28;20500;-71
2021/10/23 06:33:20;;;;;;;6.20;0.95;;;;;;;10.92;70.02;100265.50;5059618;28;20683;-70
2021/10/23 06:35:46;;;;;;;1.67;0.70;;;;;;;10.89;69.83;100265.13;5061879;28;20043;-71
2021/10/23 06:38:11;;;;;;;7.57;1.20;;;;;;;10.93;69.11;100274.38;5050633;28;20033;-70
2021/10/23 06:40:37;;;;;;;5.78;0.85;;;;;;;10.98;69.00;100264.56;5062896;28;20060;-71
2021/10/23 06:43:03;;;;;;;4.20;1.52;;;;;;;10.94;69.25;100266.09;5042204;28;20037;-70
2021/10/23 06:45:29;;;;;;;2.72;0.80;;;;;;;10.99;68.72;100270.75;5054986;28;20517;-71
2021/10/23 06:47:56;;;;;;;2.97;0.80;;;;;;;10.93;68.85;100267.13;5051206;28;20080;-72
2021/10/23 06:50:23;;;;;;;4.93;0.85;;;;;;;10.87;68.42;100259.16;5054514;28;20052;-71
2021/10/23 06:52:49;;;;;;;6.95;0.88;;;;;;;11.00;68.69;100267.00;5036319;28;20227;-77
2021/10/23 06:55:15;;;;;;;3.28;0.90;;;;;;;11.00;68.35;100260.81;5052696;28;20039;-72
2021/10/23 06:57:41;;;;;;;4.78;1.17;;;;;;;11.00;68.38;100264.31;5061413;28;20058;-71
2021/10/23 07:00:08;;;;;;;4.38;0.95;;;;;;;11.02;68.02;100262.22;5058528;28;20028;-71
2021/10/23 07:02:41;;;;;;;2.88;1.20;;;;;;;11.13;67.68;100268.69;5055067;28;20021;-72
2021/10/23 07:05:13;;;;;;;6.53;1.38;;;;;;;11.08;67.77;100265.88;5047635;28;20044;-72
2021/10/23 07:07:39;;;;;;;6.57;0.90;;;;;;;11.06;68.20;100260.69;5057859;28;20036;-71
2021/10/23 07:10:06;;;;;;;3.63;0.93;;;;;;;11.08;67.93;100271.25;5057531;28;20074;-71
2021/10/23 07:12:32;;;;;;;4.10;0.90;;;;;;;11.16;67.93;100268.22;5053847;28;20060;-72
2021/10/23 07:14:58;;;;;;;5.80;0.77;;;;;;;11.09;68.25;100273.72;5058251;28;20509;-74
2021/10/23 07:17:23;;;;;;;6.00;1.02;;;;;;;11.26;67.50;100273.00;5053747;28;20039;-71
2021/10/23 07:19:49;;;;;;;3.30;0.90;;;;;;;11.24;67.89;100269.72;5051316;28;20650;-72
2021/10/23 07:22:15;;;;;;;6.32;0.93;;;;;;;11.25;67.80;100271.38;5063881;28;20037;-72
2021/10/23 07:24:41;;;;;;;5.80;1.10;;;;;;;11.28;67.70;100273.59;5065849;28;20074;-70
2021/10/23 07:27:06;;;;;;;4.95;1.15;;;;;;;11.26;67.57;100281.94;5053798;28;20111;-71
2021/10/23 07:29:33;;;;;;;6.22;0.90;;;;;;;11.21;67.43;100276.41;5054816;28;20429;-71
2021/10/23 07:31:59;;;;;;;3.78;1.20;;;;;;;11.46;67.19;100282.63;5058241;28;20036;-71
2021/10/23 07:34:25;;;;;;;7.00;1.15;;;;;;;11.41;67.14;100286.84;5057827;28;20041;-71
2021/10/23 07:36:53;;;;;;;4.03;1.23;;;;;;;11.56;67.04;100296.38;5054631;28;20115;-71
2021/10/23 07:39:18;;;;;;;5.75;1.13;;;;;;;11.61;66.84;100283.00;5073217;28;20565;-71
2021/10/23 07:41:45;;;;;;;3.03;0.60;;;;;;;11.68;66.64;100286.38;5057217;28;20032;-71
2021/10/23 07:44:11;;;;;;;4.55;1.20;;;;;;;11.68;66.59;100285.56;5060217;28;20029;-72
2021/10/23 07:46:38;;;;;;;8.88;1.40;;;;;;;11.68;66.48;100286.38;5056154;28;20029;-72
2021/10/23 07:49:04;;;;;;;2.13;1.02;;;;;;;11.67;66.46;100289.31;5063694;28;20029;-72
2021/10/23 07:51:30;;;;;;;6.18;1.17;;;;;;;11.73;66.30;100291.06;5052470;28;20036;-72
2021/10/23 07:53:57;;;;;;;3.70;0.90;;;;;;;11.83;66.07;100280.47;5058085;28;20032;-72
2021/10/23 07:56:23;;;;;;;3.05;0.90;;;;;;;11.86;65.83;100287.31;5055437;28;20560;-72
2021/10/23 07:58:49;;;;;;;3.35;0.93;;;;;;;11.95;65.72;100280.47;5076898;28;20037;-71
2021/10/23 08:01:15;;;;;;;4.88;0.98;;;;;;;11.97;65.61;100281.06;4705587;28;10000014;-73
2021/10/23 08:03:41;;;;;;;4.13;1.15;;;;;;;11.83;65.89;100288.56;5055481;28;20071;-72
2021/10/23 08:06:07;;;;;;;6.15;1.30;;;;;;;11.91;65.78;100298.19;5050044;28;20101;-72
2021/10/23 08:08:33;;;;;;;8.10;0.90;;;;;;;11.75;66.00;100297.03;5055707;28;20062;-72
2021/10/23 08:10:59;;;;;;;4.97;1.45;;;;;;;11.88;66.05;100293.28;5053553;28;20871;-72
2021/10/23 08:13:26;;;;;;;2.25;0.88;;;;;;;11.97;65.71;100299.13;5057104;28;20433;-72
2021/10/23 08:15:52;;;;;;;2.50;1.25;;;;;;;12.18;64.91;100289.59;5062760;28;20123;-72
2021/10/23 08:18:18;;;;;;;4.72;1.27;;;;;;;12.25;65.05;100295.69;5063627;28;20135;-72
2021/10/23 08:20:44;;;;;;;5.75;1.05;;;;;;;12.42;64.79;100294.91;5055649;28;20757;-72
2021/10/23 08:23:10;;;;;;;6.07;1.40;;;;;;;12.43;64.57;100291.97;5058526;28;20036;-72
2021/10/23 08:25:35;;;;;;;4.90;1.60;;;;;;;12.40;64.41;100292.47;5051046;28;20449;-72
2021/10/23 08:28:01;;;;;;;4.70;1.58;;;;;;;12.27;65.09;100296.25;5041293;28;20039;-72
2021/10/23 08:30:27;;;;;;;7.75;1.77;;;;;;;12.51;64.80;100296.16;5061719;28;20101;-72
2021/10/23 08:32:54;;;;;;;9.75;1.80;;;;;;;12.36;64.64;100293.97;5054931;28;20118;-72
2021/10/23 08:35:20;;;;;;;4.55;1.50;;;;;;;12.41;64.93;100296.81;5054445;28;20436;-72
2021/10/23 08:37:47;;;;;;;16.25;2.40;;;;;;;12.31;64.86;100293.88;5061213;28;20041;-72
2021/10/23 08:40:13;;;;;;;14.55;2.50;;;;;;;12.33;64.42;100290.94;5060292;28;20038;-71
2021/10/23 08:42:40;;;;;;;9.48;1.77;;;;;;;12.52;64.14;100295.09;5053646;28;20041;-73
2021/10/23 08:45:08;;;;;;;5.35;1.65;;;;;;;12.50;63.91;100288.31;5053988;28;20052;-72
2021/10/23 08:47:37;;;;;;;4.90;1.40;;;;;;;12.54;63.92;100292.97;5049163;28;20059;-72
2021/10/23 08:50:06;;;;;;;3.30;1.60;;;;;;;12.48;64.73;100295.84;5060401;28;20033;-72
2021/10/23 08:52:32;;;;;;;7.28;2.10;;;;;;;12.70;63.81;100299.50;5050157;28;20036;-71
2021/10/23 08:54:58;;;;;;;6.30;2.20;;;;;;;12.78;64.03;100306.38;5054949;28;20033;-71
2021/10/23 08:57:27;;;;;;;5.47;1.83;;;;;;;12.93;63.21;100305.81;5059216;28;20032;-71
2021/10/23 08:59:53;;;;;;;3.70;1.05;;;;;;;12.80;63.09;100308.84;5056781;28;20031;-72
2021/10/23 09:02:21;;;;;;;5.10;1.08;;;;;;;12.84;62.99;100308.09;5068544;28;20035;-72
2021/10/23 09:04:48;;;;;;;4.57;1.42;;;;;;;12.76;63.09;100310.38;5043280;28;20796;-72
2021/10/23 09:07:15;;;;;;;3.72;1.20;;;;;;;12.99;62.16;100315.66;5056656;28;20047;-72
2021/10/23 09:10:01;;;;;;;9.25;1.15;;;;;;;12.79;62.59;100313.41;5056987;28;20044;-72
2021/10/23 09:12:32;;;;;;;2.42;1.17;;;;;;;12.78;63.21;100311.78;5059056;28;20154;-72
2021/10/23 09:15:10;;;;;;;10.48;1.02;;;;;;;12.95;62.97;100313.69;5060969;28;20554;-72
2021/10/23 09:17:36;;;;;;;5.32;1.45;;;;;;;12.99;62.33;100304.00;5055629;28;20040;-71
2021/10/23 09:20:11;;;;;;;2.95;1.08;;;;;;;12.82;62.56;100312.13;5058064;28;20083;-72
2021/10/23 09:22:44;;;;;;;4.40;1.40;;;;;;;12.76;62.53;100297.69;5056680;28;20033;-72
2021/10/23 09:25:13;;;;;;;6.60;1.60;;;;;;;12.63;62.89;100300.69;5057506;28;20037;-70
2021/10/23 09:27:54;;;;;;;7.72;1.65;;;;;;;12.75;63.52;100298.75;5049698;28;21198;-70
2021/10/23 09:30:23;;;;;;;6.82;2.13;;;;;;;12.53;63.41;100293.22;5053224;28;20033;-71
2021/10/23 09:32:52;;;;;;;2.55;1.58;;;;;;;12.38;63.84;100288.34;5053234;28;20037;-71
2021/10/23 09:35:18;;;;;;;6.25;1.92;;;;;;;12.42;64.06;100293.03;5058879;28;20033;-70
2021/10/23 09:37:45;;;;;;;7.75;2.22;;;;;;;12.43;64.28;100293.84;5053524;28;20097;-72
2021/10/23 09:40:18;;;;;;;5.57;2.20;;;;;;;12.37;64.60;100292.09;5053451;28;20055;-71
2021/10/23 09:42:45;;;;;;;5.50;2.08;;;;;;;12.71;63.95;100289.47;5050379;28;20780;-71
2021/10/23 09:45:11;;;;;;;9.48;2.30;;;;;;;12.66;64.20;100278.59;5052840;28;20033;-71
2021/10/23 09:47:44;;;;;;;10.02;1.85;;;;;;;12.71;63.78;100287.63;5055745;28;20572;-71
2021/10/23 09:50:14;;;;;;;5.60;2.10;;;;;;;12.83;63.86;100284.84;5057811;28;20028;-72
2021/10/23 09:53:03;;;;;;;8.00;2.28;;;;;;;13.07;63.72;100275.75;5049601;28;20036;-71
2021/10/23 09:55:31;;;;;;;3.60;1.75;;;;;;;13.00;63.72;100281.31;5054232;28;20357;-75
2021/10/23 09:58:16;;;;;;;9.27;1.83;;;;;;;13.05;63.60;100273.28;5054387;28;20136;-72
2021/10/23 10:00:43;;;;;;;7.28;1.70;;;;;;;13.13;63.21;100286.41;5050297;28;20036;-72
2021/10/23 10:03:10;;;;;;;9.95;2.22;;;;;;;13.23;63.21;100277.63;5053788;28;20029;-71
2021/10/23 10:05:36;;;;;;;9.45;1.88;;;;;;;13.21;63.60;100279.78;5050526;28;20060;-71
2021/10/23 10:08:13;;;;;;;6.75;2.00;;;;;;;13.34;63.13;100284.03;5042809;28;20032;-71
2021/10/23 10:10:45;;;;;;;5.57;1.63;;;;;;;13.65;63.12;100279.09;5041255;28;20047;-70
2021/10/23 10:13:17;;;;;;;9.15;1.83;;;;;;;13.22;64.78;100276.00;5049129;28;20047;-70
2021/10/23 10:15:50;;;;;;;5.75;1.58;;;;;;;13.19;64.99;100271.09;5057520;28;20519;-70
2021/10/23 10:18:17;;;;;;;3.38;1.42;;;;;;;13.41;64.05;100273.03;5055406;28;20083;-70
2021/10/23 10:20:48;;;;;;;8.07;1.50;;;;;;;13.39;64.36;100270.59;5053227;28;20052;-70
2021/10/23 10:23:29;;;;;;;7.55;1.80;;;;;;;13.11;64.91;100266.09;5042532;28;20549;-70
2021/10/23 10:26:18;;;;;;;11.32;2.10;;;;;;;13.39;64.26;100273.28;5050720;28;20444;-70
2021/10/23 10:29:11;;;;;;;6.50;1.98;;;;;;;13.36;64.55;100262.97;5054813;28;20393;-71
2021/10/23 10:32:02;;;;;;;5.25;2.00;;;;;;;13.12;64.77;100265.81;5049773;28;20071;-71
2021/10/23 10:34:45;;;;;;;9.63;3.53;;;;;;;13.21;65.14;100273.53;5046564;28;20094;-70
2021/10/23 10:37:29;;;;;;;4.82;1.98;;;;;;;13.21;64.74;100268.94;5045823;28;20067;-70
2021/10/23 10:42:55;;;;;;;6.65;2.13;;;;;;;13.60;64.70;100281.72;5049399;28;20486;-70
2021/10/23 10:45:41;;;;;;;10.88;2.10;;;;;;;13.54;64.16;100264.59;5047856;28;20037;-70
2021/10/23 10:48:37;;;;;;;7.90;2.10;;;;;;;13.87;63.17;100270.97;5058348;28;20033;-70
2021/10/23 10:51:07;;;;;;;8.00;2.28;;;;;;;14.00;63.60;100268.94;5053740;28;20032;-70
2021/10/23 10:53:35;;;;;;;7.72;1.98;;;;;;;13.90;62.93;100256.13;5053543;28;20085;-70
2021/10/23 10:56:11;;;;;;;8.18;2.22;;;;;;;13.76;63.05;100255.66;5054472;28;20036;-70
2021/10/23 10:58:57;;;;;;;6.28;1.60;;;;;;;13.86;62.61;100257.69;5052960;28;20040;-70
2021/10/23 11:01:25;;;;;;;6.97;1.80;;;;;;;14.01;62.41;100251.63;5050884;28;20029;-70
2021/10/23 11:03:51;;;;;;;3.92;1.55;;;;;;;13.89;62.58;100259.91;5050616;28;20032;-70
2021/10/23 11:09:16;;;;;;;12.00;3.10;;;;;;;14.00;61.76;100258.94;5050497;28;20029;-71
2021/10/23 11:11:44;;;;;;;7.15;1.50;;;;;;;14.14;61.07;100259.41;5054415;28;20120;-70
2021/10/23 11:14:28;;;;;;;10.63;3.58;;;;;;;13.97;62.02;100254.03;5050673;28;20378;-71
2021/10/23 11:16:57;;;;;;;4.72;1.90;;;;;;;14.53;60.82;100257.63;5064601;28;20067;-71
2021/10/23 11:19:37;;;;;;;11.93;3.40;;;;;;;14.52;60.73;100245.94;5058264;28;20139;-70
2021/10/23 11:22:09;;;;;;;11.25;3.05;;;;;;;14.24;60.42;100250.53;5041347;28;20032;-69
2021/10/23 11:24:42;;;;;;;5.90;2.00;;;;;;;14.72;60.01;100239.09;5052280;28;20049;-69
2021/10/23 11:27:22;;;;;;;6.18;1.63;;;;;;;14.37;60.58;100246.63;5048445;28;20060;-69
2021/10/23 11:29:47;;;;;;;7.85;1.92;;;;;;;14.38;60.09;100231.19;5053788;28;20031;-68